sensor_id;sensor_type;location;lat;lon;timestamp;pressure;altitude;pressure_sealevel;temperature;humidity
72038;BME280;59900;50.788;12.904;2023-12-20T00:01:28;97060.09;;;4.17;100.00
72038;BME280;59900;50.788;12.904;2023-12-20T00:03:54;97068.88;;;4.16;100.00
72038;BME280;59900;50.788;12.904;2023-12-20T00:06:19;97064.66;;;4.15;100.00
72038;BME280;59900;50.788;12.904;2023-12-20T00:08:44;97076.84;;;4.15;100.00
72038;BME280;59900;50.788;12.904;2023-12-20T00:11:09;97058.00;;;4.13;100.00
72038;BME280;59900;50.788;12.904;2023-12-20T00:13:35;97051.16;;;4.12;100.00
72038;BME280;59900;50.788;12.904;2023-12-20T00:16:00;97059.47;;;4.07;100.00
72038;BME280;59900;50.788;12.904;2023-12-20T00:18:25;97060.44;;;4.06;100.00
72038;BME280;59900;50.788;12.904;2023-12-20T00:20:51;97054.63;;;4.04;100.00
72038;BME280;59900;50.788;12.904;2023-12-20T00:23:16;97047.97;;;4.02;100.00
72038;BME280;59900;50.788;12.904;2023-12-20T00:25:42;97042.75;;;4.02;100.00
72038;BME280;59900;50.788;12.904;2023-12-20T00:28:07;97046.00;;;4.04;100.00
72038;BME280;59900;50.788;12.904;2023-12-20T00:30:32;97046.81;;;4.04;100.00
72038;BME280;59900;50.788;12.904;2023-12-20T00:32:57;97050.56;;;4.02;100.00
72038;BME280;59900;50.788;12.904;2023-12-20T00:35:23;97043.72;;;4.01;100.00
72038;BME280;59900;50.788;12.904;2023-12-20T00:37:48;97035.44;;;3.97;100.00
72038;BME280;59900;50.788;12.904;2023-12-20T00:40:13;97050.22;;;3.96;100.00
72038;BME280;59900;50.788;12.904;2023-12-20T00:42:38;97035.16;;;3.92;100.00
72038;BME280;59900;50.788;12.904;2023-12-20T00:45:04;97034.50;;;3.90;100.00
72038;BME280;59900;50.788;12.904;2023-12-20T00:47:30;97033.84;;;3.88;100.00
72038;BME280;59900;50.788;12.904;2023-12-20T00:49:56;97033.06;;;3.87;100.00
72038;BME280;59900;50.788;12.904;2023-12-20T00:52:22;97036.44;;;3.88;100.00
72038;BME280;59900;50.788;12.904;2023-12-20T00:54:48;97035.00;;;3.85;100.00
72038;BME280;59900;50.788;12.904;2023-12-20T00:57:13;97029.31;;;3.82;100.00
72038;BME280;59900;50.788;12.904;2023-12-20T00:59:38;97027.84;;;3.79;100.00
72038;BME280;59900;50.788;12.904;2023-12-20T01:02:04;97020.25;;;3.78;100.00
72038;BME280;59900;50.788;12.904;2023-12-20T01:04:29;97021.22;;;3.77;100.00
72038;BME280;59900;50.788;12.904;2023-12-20T01:06:54;97020.41;;;3.76;100.00
72038;BME280;59900;50.788;12.904;2023-12-20T01:09:20;97011.78;;;3.76;100.00
72038;BME280;59900;50.788;12.904;2023-12-20T01:11:48;97028.03;;;3.78;100.00
72038;BME280;59900;50.788;12.904;2023-12-20T01:14:13;97015.84;;;3.78;100.00
72038;BME280;59900;50.788;12.904;2023-12-20T01:16:39;97023.16;;;3.75;100.00
72038;BME280;59900;50.788;12.904;2023-12-20T01:19:04;97014.72;;;3.73;100.00
72038;BME280;59900;50.788;12.904;2023-12-20T01:21:29;97013.94;;;3.72;100.00
72038;BME280;59900;50.788;12.904;2023-12-20T01:23:55;97011.81;;;3.68;100.00
72038;BME280;59900;50.788;12.904;2023-12-20T01:26:20;97021.06;;;3.70;100.00
72038;BME280;59900;50.788;12.904;2023-12-20T01:28:45;97019.94;;;3.65;100.00
72038;BME280;59900;50.788;12.904;2023-12-20T01:31:11;97016.69;;;3.63;100.00
72038;BME280;59900;50.788;12.904;2023-12-20T01:33:36;97014.44;;;3.60;100.00
72038;BME280;59900;50.788;12.904;2023-12-20T01:36:01;97014.44;;;3.60;100.00
72038;BME280;59900;50.788;12.904;2023-12-20T01:38:27;97021.59;;;3.58;100.00
72038;BME280;59900;50.788;12.904;2023-12-20T01:40:52;97015.91;;;3.54;100.00
72038;BME280;59900;50.788;12.904;2023-12-20T01:43:17;96999.34;;;3.55;100.00
72038;BME280;59900;50.788;12.904;2023-12-20T01:45:42;97011.03;;;3.51;100.00
72038;BME280;59900;50.788;12.904;2023-12-20T01:48:08;96999.81;;;3.51;100.00
72038;BME280;59900;50.788;12.904;2023-12-20T01:50:36;96995.44;;;3.51;100.00
72038;BME280;59900;50.788;12.904;2023-12-20T01:53:03;96997.09;;;3.52;100.00
72038;BME280;59900;50.788;12.904;2023-12-20T01:55:31;96987.03;;;3.49;100.00
72038;BME280;59900;50.788;12.904;2023-12-20T01:57:57;96990.06;;;3.53;100.00
72038;BME280;59900;50.788;12.904;2023-12-20T02:00:23;96985.06;;;3.51;100.00
72038;BME280;59900;50.788;12.904;2023-12-20T02:02:53;96986.03;;;3.50;100.00
72038;BME280;59900;50.788;12.904;2023-12-20T02:05:18;96988.13;;;3.47;100.00
72038;BME280;59900;50.788;12.904;2023-12-20T02:07:43;96979.22;;;3.49;100.00
72038;BME280;59900;50.788;12.904;2023-12-20T02:10:09;96988.13;;;3.47;100.00
72038;BME280;59900;50.788;12.904;2023-12-20T02:12:34;96984.09;;;3.44;100.00
72038;BME280;59900;50.788;12.904;2023-12-20T02:14:59;96977.91;;;3.45;100.00
72038;BME280;59900;50.788;12.904;2023-12-20T02:17:25;96970.28;;;3.44;100.00
72038;BME280;59900;50.788;12.904;2023-12-20T02:19:51;96977.75;;;3.47;100.00
72038;BME280;59900;50.788;12.904;2023-12-20T02:22:16;96982.31;;;3.45;100.00
72038;BME280;59900;50.788;12.904;2023-12-20T02:24:41;96981.34;;;3.46;100.00
72038;BME280;59900;50.788;12.904;2023-12-20T02:27:07;96971.91;;;3.45;100.00
72038;BME280;59900;50.788;12.904;2023-12-20T02:29:33;96976.47;;;3.43;100.00
72038;BME280;59900;50.788;12.904;2023-12-20T02:31:59;96970.28;;;3.44;100.00
72038;BME280;59900;50.788;12.904;2023-12-20T02:34:24;96971.91;;;3.45;100.00
72038;BME280;59900;50.788;12.904;2023-12-20T02:36:49;96980.66;;;3.44;100.00
72038;BME280;59900;50.788;12.904;2023-12-20T02:39:15;96969.16;;;3.46;100.00
72038;BME280;59900;50.788;12.904;2023-12-20T02:41:40;96962.34;;;3.45;100.00
72038;BME280;59900;50.788;12.904;2023-12-20T02:44:05;96968.81;;;3.41;100.00
72038;BME280;59900;50.788;12.904;2023-12-20T02:46:31;96960.22;;;3.40;100.00
72038;BME280;59900;50.788;12.904;2023-12-20T02:48:56;96971.28;;;3.43;100.00
72038;BME280;59900;50.788;12.904;2023-12-20T02:51:21;96968.34;;;3.46;100.00
72038;BME280;59900;50.788;12.904;2023-12-20T02:53:47;96959.91;;;3.44;100.00
72038;BME280;59900;50.788;12.904;2023-12-20T02:56:12;96960.72;;;3.44;100.00
72038;BME280;59900;50.788;12.904;2023-12-20T02:58:38;96966.91;;;3.43;100.00
72038;BME280;59900;50.788;12.904;2023-12-20T03:01:04;96957.63;;;3.40;100.00
72038;BME280;59900;50.788;12.904;2023-12-20T03:03:29;96969.34;;;3.36;100.00
72038;BME280;59900;50.788;12.904;2023-12-20T03:05:54;96962.34;;;3.37;100.00
72038;BME280;59900;50.788;12.904;2023-12-20T03:08:19;96963.97;;;3.38;100.00
72038;BME280;59900;50.788;12.904;2023-12-20T03:10:44;96951.16;;;3.36;100.00
72038;BME280;59900;50.788;12.904;2023-12-20T03:13:10;96944.34;;;3.35;100.00
72038;BME280;59900;50.788;12.904;2023-12-20T03:15:35;96937.53;;;3.34;100.00
72038;BME280;59900;50.788;12.904;2023-12-20T03:18:01;96949.03;;;3.32;100.00
72038;BME280;59900;50.788;12.904;2023-12-20T03:20:26;96946.63;;;3.30;100.00
72038;BME280;59900;50.788;12.904;2023-12-20T03:22:51;96943.84;;;3.32;100.00
72038;BME280;59900;50.788;12.904;2023-12-20T03:25:17;96936.38;;;3.29;100.00
72038;BME280;59900;50.788;12.904;2023-12-20T03:27:42;96949.69;;;3.26;100.00
72038;BME280;59900;50.788;12.904;2023-12-20T03:30:07;96949.06;;;3.24;100.00
72038;BME280;59900;50.788;12.904;2023-12-20T03:32:33;96955.25;;;3.23;100.00
72038;BME280;59900;50.788;12.904;2023-12-20T03:34:58;96942.41;;;3.21;100.00
72038;BME280;59900;50.788;12.904;2023-12-20T03:37:23;96939.81;;;3.21;100.00
72038;BME280;59900;50.788;12.904;2023-12-20T03:39:49;96944.88;;;3.23;100.00
72038;BME280;59900;50.788;12.904;2023-12-20T03:42:14;96942.09;;;3.24;100.00
72038;BME280;59900;50.788;12.904;2023-12-20T03:44:39;96948.25;;;3.23;100.00
72038;BME280;59900;50.788;12.904;2023-12-20T03:47:05;96962.03;;;3.24;100.00
72038;BME280;59900;50.788;12.904;2023-12-20T03:49:30;96962.22;;;3.22;100.00
72038;BME280;59900;50.788;12.904;2023-12-20T03:51:55;96944.69;;;3.24;100.00
72038;BME280;59900;50.788;12.904;2023-12-20T03:54:21;96952.28;;;3.26;100.00
72038;BME280;59900;50.788;12.904;2023-12-20T03:56:46;96954.88;;;3.26;100.00
72038;BME280;59900;50.788;12.904;2023-12-20T03:59:11;96944.69;;;3.24;100.00
72038;BME280;59900;50.788;12.904;2023-12-20T04:01:36;96951.50;;;3.25;100.00
72038;BME280;59900;50.788;12.904;2023-12-20T04:04:02;96946.94;;;3.27;100.00
72038;BME280;59900;50.788;12.904;2023-12-20T04:06:27;96955.56;;;3.28;100.00
72038;BME280;59900;50.788;12.904;2023-12-20T04:08:53;96954.75;;;3.27;100.00
72038;BME280;59900;50.788;12.904;2023-12-20T04:11:18;96955.69;;;3.26;100.00
72038;BME280;59900;50.788;12.904;2023-12-20T04:13:43;96953.28;;;3.25;100.00
72038;BME280;59900;50.788;12.904;2023-12-20T04:16:08;96942.09;;;3.24;100.00
72038;BME280;59900;50.788;12.904;2023-12-20T04:18:34;96953.28;;;3.25;100.00
72038;BME280;59900;50.788;12.904;2023-12-20T04:20:59;96948.09;;;3.25;100.00
72038;BME280;59900;50.788;12.904;2023-12-20T04:23:24;96951.66;;;3.24;100.00
72038;BME280;59900;50.788;12.904;2023-12-20T04:25:49;96948.25;;;3.23;100.00
72038;BME280;59900;50.788;12.904;2023-12-20T04:28:15;96954.44;;;3.22;100.00
72038;BME280;59900;50.788;12.904;2023-12-20T04:30:40;96944.69;;;3.24;100.00
72038;BME280;59900;50.788;12.904;2023-12-20T04:33:06;96944.69;;;3.24;100.00
72038;BME280;59900;50.788;12.904;2023-12-20T04:35:31;96960.25;;;3.24;100.00
72038;BME280;59900;50.788;12.904;2023-12-20T04:37:56;96954.25;;;3.24;100.00
72038;BME280;59900;50.788;12.904;2023-12-20T04:40:21;96957.66;;;3.24;100.00
72038;BME280;59900;50.788;12.904;2023-12-20T04:42:47;96955.69;;;3.26;100.00
72038;BME280;59900;50.788;12.904;2023-12-20T04:45:12;96959.94;;;3.27;100.00
72038;BME280;59900;50.788;12.904;2023-12-20T04:47:38;96958.97;;;3.28;100.00
72038;BME280;59900;50.788;12.904;2023-12-20T04:50:04;96963.03;;;3.31;100.00
72038;BME280;59900;50.788;12.904;2023-12-20T04:52:30;96960.25;;;3.32;100.00
72038;BME280;59900;50.788;12.904;2023-12-20T04:54:55;96960.09;;;3.34;100.00
72038;BME280;59900;50.788;12.904;2023-12-20T04:57:21;96965.44;;;3.32;100.00
72038;BME280;59900;50.788;12.904;2023-12-20T04:59:46;96964.47;;;3.33;100.00
72038;BME280;59900;50.788;12.904;2023-12-20T05:02:12;96965.09;;;3.35;100.00
72038;BME280;59900;50.788;12.904;2023-12-20T05:04:37;96977.47;;;3.33;100.00
72038;BME280;59900;50.788;12.904;2023-12-20T05:07:02;96967.06;;;3.33;100.00
72038;BME280;59900;50.788;12.904;2023-12-20T05:09:30;96973.06;;;3.34;100.00
72038;BME280;59900;50.788;12.904;2023-12-20T05:11:55;96964.28;;;3.35;100.00
72038;BME280;59900;50.788;12.904;2023-12-20T05:14:20;96968.53;;;3.36;100.00
72038;BME280;59900;50.788;12.904;2023-12-20T05:16:45;96977.94;;;3.37;100.00
72038;BME280;59900;50.788;12.904;2023-12-20T05:19:11;96993.69;;;3.35;100.00
72038;BME280;59900;50.788;12.904;2023-12-20T05:21:36;96979.72;;;3.36;100.00
72038;BME280;59900;50.788;12.904;2023-12-20T05:24:01;96971.94;;;3.36;100.00
72038;BME280;59900;50.788;12.904;2023-12-20T05:26:26;96980.38;;;3.38;100.00
72038;BME280;59900;50.788;12.904;2023-12-20T05:28:52;96989.16;;;3.37;100.00
72038;BME280;59900;50.788;12.904;2023-12-20T05:31:17;96984.91;;;3.36;100.00
72038;BME280;59900;50.788;12.904;2023-12-20T05:33:42;96985.88;;;3.35;100.00
72038;BME280;59900;50.788;12.904;2023-12-20T05:36:08;96984.09;;;3.36;100.00
72038;BME280;59900;50.788;12.904;2023-12-20T05:38:36;96975.81;;;3.40;100.00
72038;BME280;59900;50.788;12.904;2023-12-20T05:41:01;96975.81;;;3.40;100.00
72038;BME280;59900;50.788;12.904;2023-12-20T05:43:27;96974.69;;;3.43;100.00
72038;BME280;59900;50.788;12.904;2023-12-20T05:45:52;96972.88;;;3.44;100.00
72038;BME280;59900;50.788;12.904;2023-12-20T05:48:17;96976.97;;;3.46;100.00
72038;BME280;59900;50.788;12.904;2023-12-20T05:50:42;96993.50;;;3.45;100.00
72038;BME280;59900;50.788;12.904;2023-12-20T05:53:07;96989.13;;;3.46;100.00
72038;BME280;59900;50.788;12.904;2023-12-20T05:55:33;96996.91;;;3.46;100.00
72038;BME280;59900;50.788;12.904;2023-12-20T05:57:58;97007.31;;;3.46;100.00
72038;BME280;59900;50.788;12.904;2023-12-20T06:00:23;97012.66;;;3.44;100.00
72038;BME280;59900;50.788;12.904;2023-12-20T06:02:48;97002.13;;;3.46;100.00
72038;BME280;59900;50.788;12.904;2023-12-20T06:05:14;97013.16;;;3.48;100.00
72038;BME280;59900;50.788;12.904;2023-12-20T06:07:39;97008.13;;;3.46;100.00
72038;BME280;59900;50.788;12.904;2023-12-20T06:10:04;97004.53;;;3.47;100.00
72038;BME280;59900;50.788;12.904;2023-12-20T06:12:31;97002.59;;;3.49;100.00
72038;BME280;59900;50.788;12.904;2023-12-20T06:14:58;97011.19;;;3.50;100.00
72038;BME280;59900;50.788;12.904;2023-12-20T06:17:23;97018.66;;;3.53;100.00
72038;BME280;59900;50.788;12.904;2023-12-20T06:19:49;97024.50;;;3.55;100.00
72038;BME280;59900;50.788;12.904;2023-12-20T06:22:15;97022.72;;;3.55;100.00
72038;BME280;59900;50.788;12.904;2023-12-20T06:24:40;97020.78;;;3.57;100.00
72038;BME280;59900;50.788;12.904;2023-12-20T06:27:06;97024.00;;;3.59;100.00
72038;BME280;59900;50.788;12.904;2023-12-20T06:29:31;97027.91;;;3.55;100.00
72038;BME280;59900;50.788;12.904;2023-12-20T06:31:57;97039.09;;;3.56;100.00
72038;BME280;59900;50.788;12.904;2023-12-20T06:34:22;97030.16;;;3.58;100.00
72038;BME280;59900;50.788;12.904;2023-12-20T06:36:47;97034.25;;;3.61;100.00
72038;BME280;59900;50.788;12.904;2023-12-20T06:39:12;97034.25;;;3.61;100.00
72038;BME280;59900;50.788;12.904;2023-12-20T06:41:39;97033.25;;;3.62;100.00
72038;BME280;59900;50.788;12.904;2023-12-20T06:44:04;97034.88;;;3.63;100.00
72038;BME280;59900;50.788;12.904;2023-12-20T06:46:30;97044.31;;;3.64;100.00
72038;BME280;59900;50.788;12.904;2023-12-20T06:48:55;97050.97;;;3.66;100.00
72038;BME280;59900;50.788;12.904;2023-12-20T06:51:20;97049.97;;;3.67;100.00
72038;BME280;59900;50.788;12.904;2023-12-20T06:53:45;97055.34;;;3.66;100.00
72038;BME280;59900;50.788;12.904;2023-12-20T06:56:11;97053.22;;;3.69;100.00
72038;BME280;59900;50.788;12.904;2023-12-20T06:58:37;97049.63;;;3.70;100.00
72038;BME280;59900;50.788;12.904;2023-12-20T07:01:03;97058.88;;;3.73;100.00
72038;BME280;59900;50.788;12.904;2023-12-20T07:03:29;97045.91;;;3.73;100.00
72038;BME280;59900;50.788;12.904;2023-12-20T07:05:54;97060.38;;;3.75;100.00
72038;BME280;59900;50.788;12.904;2023-12-20T07:08:19;97052.38;;;3.77;100.00
72038;BME280;59900;50.788;12.904;2023-12-20T07:10:45;97055.00;;;3.77;100.00
72038;BME280;59900;50.788;12.904;2023-12-20T07:13:10;97054.84;;;3.78;100.00
72038;BME280;59900;50.788;12.904;2023-12-20T07:15:35;97065.06;;;3.80;100.00
72038;BME280;59900;50.788;12.904;2023-12-20T07:18:01;97064.41;;;3.78;100.00
72038;BME280;59900;50.788;12.904;2023-12-20T07:20:27;97066.03;;;3.79;100.00
72038;BME280;59900;50.788;12.904;2023-12-20T07:22:52;97065.25;;;3.78;100.00
72038;BME280;59900;50.788;12.904;2023-12-20T07:25:17;97056.44;;;3.79;100.00
72038;BME280;59900;50.788;12.904;2023-12-20T07:27:43;97066.84;;;3.79;100.00
72038;BME280;59900;50.788;12.904;2023-12-20T07:30:08;97072.84;;;3.80;100.00
72038;BME280;59900;50.788;12.904;2023-12-20T07:32:34;97080.66;;;3.80;100.00
72038;BME280;59900;50.788;12.904;2023-12-20T07:34:59;97078.53;;;3.83;100.00
72038;BME280;59900;50.788;12.904;2023-12-20T07:37:24;97076.09;;;3.82;100.00
72038;BME280;59900;50.788;12.904;2023-12-20T07:39:49;97062.94;;;3.83;100.00
72038;BME280;59900;50.788;12.904;2023-12-20T07:42:15;97067.97;;;3.85;100.00
72038;BME280;59900;50.788;12.904;2023-12-20T07:44:40;97070.56;;;3.85;100.00
72038;BME280;59900;50.788;12.904;2023-12-20T07:47:05;97068.78;;;3.85;100.00
72038;BME280;59900;50.788;12.904;2023-12-20T07:49:31;97065.38;;;3.85;100.00
72038;BME280;59900;50.788;12.904;2023-12-20T07:51:57;97056.59;;;3.86;100.00
72038;BME280;59900;50.788;12.904;2023-12-20T07:54:22;97053.84;;;3.87;100.00
72038;BME280;59900;50.788;12.904;2023-12-20T07:56:48;97060.97;;;3.85;100.00
72038;BME280;59900;50.788;12.904;2023-12-20T07:59:13;97071.38;;;3.85;100.00
72038;BME280;59900;50.788;12.904;2023-12-20T08:01:39;97060.97;;;3.85;100.00
72038;BME280;59900;50.788;12.904;2023-12-20T08:04:04;97067.31;;;3.83;100.00
72038;BME280;59900;50.788;12.904;2023-12-20T08:06:30;97069.78;;;3.84;100.00
72038;BME280;59900;50.788;12.904;2023-12-20T08:08:55;97074.78;;;3.86;100.00
72038;BME280;59900;50.788;12.904;2023-12-20T08:11:20;97069.44;;;3.87;100.00
72038;BME280;59900;50.788;12.904;2023-12-20T08:13:45;97060.50;;;3.90;100.00
72038;BME280;59900;50.788;12.904;2023-12-20T08:16:11;97069.09;;;3.90;100.00
72038;BME280;59900;50.788;12.904;2023-12-20T08:18:38;97068.75;;;3.93;100.00
72038;BME280;59900;50.788;12.904;2023-12-20T08:21:04;97068.91;;;4.00;100.00
72038;BME280;59900;50.788;12.904;2023-12-20T08:23:29;97071.81;;;4.05;100.00
72038;BME280;59900;50.788;12.904;2023-12-20T08:25:54;97072.63;;;4.06;100.00
72038;BME280;59900;50.788;12.904;2023-12-20T08:28:19;97071.34;;;4.02;100.00
72038;BME280;59900;50.788;12.904;2023-12-20T08:30:45;97085.97;;;4.03;100.00
72038;BME280;59900;50.788;12.904;2023-12-20T08:33:10;97085.84;;;3.96;100.00
72038;BME280;59900;50.788;12.904;2023-12-20T08:35:38;97085.66;;;3.97;100.00
72038;BME280;59900;50.788;12.904;2023-12-20T08:38:04;97090.03;;;3.97;100.00
72038;BME280;59900;50.788;12.904;2023-12-20T08:40:29;97089.41;;;3.95;100.00
72038;BME280;59900;50.788;12.904;2023-12-20T08:42:54;97091.81;;;3.96;100.00
72038;BME280;59900;50.788;12.904;2023-12-20T08:45:20;97094.09;;;4.00;100.00
72038;BME280;59900;50.788;12.904;2023-12-20T08:47:45;97095.72;;;4.01;100.00
72038;BME280;59900;50.788;12.904;2023-12-20T08:50:11;97086.28;;;4.08;100.00
72038;BME280;59900;50.788;12.904;2023-12-20T08:52:36;97077.00;;;4.05;100.00
72038;BME280;59900;50.788;12.904;2023-12-20T08:55:01;97088.09;;;3.99;100.00
72038;BME280;59900;50.788;12.904;2023-12-20T08:57:26;97096.69;;;4.00;100.00
72038;BME280;59900;50.788;12.904;2023-12-20T08:59:52;97102.88;;;3.99;100.00
72038;BME280;59900;50.788;12.904;2023-12-20T09:02:17;97095.25;;;3.97;100.00
72038;BME280;59900;50.788;12.904;2023-12-20T09:04:43;97105.63;;;3.97;100.00
72038;BME280;59900;50.788;12.904;2023-12-20T09:07:24;97091.03;;;3.96;100.00
72038;BME280;59900;50.788;12.904;2023-12-20T09:09:50;97095.41;;;3.95;100.00
72038;BME280;59900;50.788;12.904;2023-12-20T09:12:17;97096.06;;;3.89;100.00
72038;BME280;59900;50.788;12.904;2023-12-20T09:14:42;97098.81;;;3.88;100.00
72038;BME280;59900;50.788;12.904;2023-12-20T09:17:08;97098.03;;;3.87;100.00
72038;BME280;59900;50.788;12.904;2023-12-20T09:19:36;97109.06;;;3.89;100.00
72038;BME280;59900;50.788;12.904;2023-12-20T09:22:01;97102.09;;;3.90;100.00
72038;BME280;59900;50.788;12.904;2023-12-20T09:24:27;97093.78;;;3.94;100.00
72038;BME280;59900;50.788;12.904;2023-12-20T09:26:52;97103.72;;;3.99;100.00
72038;BME280;59900;50.788;12.904;2023-12-20T09:29:17;97093.25;;;4.15;100.00
72038;BME280;59900;50.788;12.904;2023-12-20T09:31:43;97097.97;;;4.20;100.00
72038;BME280;59900;50.788;12.904;2023-12-20T09:34:09;97087.22;;;4.23;100.00
72038;BME280;59900;50.788;12.904;2023-12-20T09:36:34;97087.38;;;4.21;100.00
72038;BME280;59900;50.788;12.904;2023-12-20T09:39:01;97082.81;;;4.23;100.00
72038;BME280;59900;50.788;12.904;2023-12-20T09:41:28;97093.41;;;4.22;100.00
72038;BME280;59900;50.788;12.904;2023-12-20T09:44:01;97091.63;;;4.22;100.00
72038;BME280;59900;50.788;12.904;2023-12-20T09:46:28;97089.03;;;4.22;99.91
72038;BME280;59900;50.788;12.904;2023-12-20T09:48:59;97077.28;;;4.26;99.46
72038;BME280;59900;50.788;12.904;2023-12-20T09:51:27;97075.16;;;4.30;99.10
72038;BME280;59900;50.788;12.904;2023-12-20T09:53:54;97087.00;;;4.40;98.69
72038;BME280;59900;50.788;12.904;2023-12-20T09:56:20;97085.38;;;4.39;96.66
72038;BME280;59900;50.788;12.904;2023-12-20T09:58:46;97079.84;;;4.42;96.12
72038;BME280;59900;50.788;12.904;2023-12-20T10:01:12;97085.97;;;4.49;97.08
72038;BME280;59900;50.788;12.904;2023-12-20T10:03:39;97076.25;;;4.43;96.19
72038;BME280;59900;50.788;12.904;2023-12-20T10:06:06;97071.03;;;4.43;96.50
72038;BME280;59900;50.788;12.904;2023-12-20T10:08:31;97073.81;;;4.42;97.00
72038;BME280;59900;50.788;12.904;2023-12-20T10:10:57;97065.53;;;4.38;95.49
72038;BME280;59900;50.788;12.904;2023-12-20T10:13:27;97051.56;;;4.39;95.96
72038;BME280;59900;50.788;12.904;2023-12-20T10:15:55;97044.41;;;4.41;95.71
72038;BME280;59900;50.788;12.904;2023-12-20T10:18:20;97044.25;;;4.43;95.78
72038;BME280;59900;50.788;12.904;2023-12-20T10:20:46;97038.22;;;4.42;95.58
72038;BME280;59900;50.788;12.904;2023-12-20T10:23:11;97041.47;;;4.44;96.04
72038;BME280;59900;50.788;12.904;2023-12-20T10:25:37;97037.06;;;4.45;95.38
72038;BME280;59900;50.788;12.904;2023-12-20T10:28:13;97026.13;;;4.49;93.81
72038;BME280;59900;50.788;12.904;2023-12-20T10:30:40;97030.91;;;4.46;92.37
72038;BME280;59900;50.788;12.904;2023-12-20T10:33:06;97024.88;;;4.45;92.94
72038;BME280;59900;50.788;12.904;2023-12-20T10:35:34;97036.59;;;4.41;92.74
72038;BME280;59900;50.788;12.904;2023-12-20T10:38:05;97018.03;;;4.44;91.76
72038;BME280;59900;50.788;12.904;2023-12-20T10:40:34;97010.25;;;4.44;92.40
72038;BME280;59900;50.788;12.904;2023-12-20T10:43:00;97020.66;;;4.44;92.45
72038;BME280;59900;50.788;12.904;2023-12-20T10:45:26;97021.28;;;4.46;93.34
72038;BME280;59900;50.788;12.904;2023-12-20T10:47:51;97016.25;;;4.45;93.15
72038;BME280;59900;50.788;12.904;2023-12-20T10:50:19;97008.78;;;4.42;92.75
72038;BME280;59900;50.788;12.904;2023-12-20T10:52:45;97014.28;;;4.47;94.03
72038;BME280;59900;50.788;12.904;2023-12-20T10:55:11;96994.47;;;4.46;93.94
72038;BME280;59900;50.788;12.904;2023-12-20T10:57:37;97006.66;;;4.45;93.94
72038;BME280;59900;50.788;12.904;2023-12-20T11:00:02;97004.69;;;4.47;94.14
72038;BME280;59900;50.788;12.904;2023-12-20T11:02:39;96994.75;;;4.51;93.08
72038;BME280;59900;50.788;12.904;2023-12-20T11:05:27;96998.47;;;4.57;92.22
72038;BME280;59900;50.788;12.904;2023-12-20T11:10:51;96989.63;;;4.66;92.13
72038;BME280;59900;50.788;12.904;2023-12-20T11:13:23;96981.00;;;4.65;91.43
72038;BME280;59900;50.788;12.904;2023-12-20T11:15:53;96988.81;;;4.65;91.07
72038;BME280;59900;50.788;12.904;2023-12-20T11:18:18;97004.72;;;4.70;90.99
72038;BME280;59900;50.788;12.904;2023-12-20T11:20:43;97010.13;;;4.69;90.15
72038;BME280;59900;50.788;12.904;2023-12-20T11:23:09;96997.72;;;4.71;89.12
72038;BME280;59900;50.788;12.904;2023-12-20T11:25:48;97005.19;;;4.74;90.35
72038;BME280;59900;50.788;12.904;2023-12-20T11:28:14;97010.75;;;4.71;89.02
72038;BME280;59900;50.788;12.904;2023-12-20T11:30:46;96997.56;;;4.72;88.99
72038;BME280;59900;50.788;12.904;2023-12-20T11:33:15;96984.22;;;4.75;88.57
72038;BME280;59900;50.788;12.904;2023-12-20T11:35:42;96992.19;;;4.74;87.90
72038;BME280;59900;50.788;12.904;2023-12-20T11:38:08;96995.59;;;4.74;87.80
72038;BME280;59900;50.788;12.904;2023-12-20T11:40:34;96991.84;;;4.77;88.29
72038;BME280;59900;50.788;12.904;2023-12-20T11:43:00;97002.25;;;4.77;88.71
72038;BME280;59900;50.788;12.904;2023-12-20T11:45:25;96998.34;;;4.73;87.80
72038;BME280;59900;50.788;12.904;2023-12-20T11:47:52;96985.34;;;4.73;88.17
72038;BME280;59900;50.788;12.904;2023-12-20T11:50:22;96987.16;;;4.72;88.46
72038;BME280;59900;50.788;12.904;2023-12-20T11:52:48;96967.78;;;4.75;89.18
72038;BME280;59900;50.788;12.904;2023-12-20T11:55:14;96985.00;;;4.76;88.66
72038;BME280;59900;50.788;12.904;2023-12-20T11:57:39;96973.81;;;4.75;88.25
72038;BME280;59900;50.788;12.904;2023-12-20T12:00:05;96963.19;;;4.77;88.10
72038;BME280;59900;50.788;12.904;2023-12-20T12:02:31;96951.63;;;4.79;88.03
72038;BME280;59900;50.788;12.904;2023-12-20T12:04:57;96966.09;;;4.82;87.91
72038;BME280;59900;50.788;12.904;2023-12-20T12:07:24;96957.44;;;4.89;87.88
72038;BME280;59900;50.788;12.904;2023-12-20T12:09:49;96964.81;;;5.00;86.63
72038;BME280;59900;50.788;12.904;2023-12-20T12:12:15;96953.09;;;5.04;87.72
72038;BME280;59900;50.788;12.904;2023-12-20T12:14:40;96953.25;;;5.03;87.43
72038;BME280;59900;50.788;12.904;2023-12-20T12:17:12;96940.84;;;5.05;87.92
72038;BME280;59900;50.788;12.904;2023-12-20T12:19:41;96947.88;;;5.04;87.35
72038;BME280;59900;50.788;12.904;2023-12-20T12:22:08;96933.03;;;5.05;87.72
72038;BME280;59900;50.788;12.904;2023-12-20T12:24:36;96938.91;;;5.07;87.72
72038;BME280;59900;50.788;12.904;2023-12-20T12:27:02;96921.63;;;5.06;87.44
72038;BME280;59900;50.788;12.904;2023-12-20T12:29:28;96921.63;;;5.06;87.75
72038;BME280;59900;50.788;12.904;2023-12-20T12:31:54;96924.44;;;5.04;88.38
72038;BME280;59900;50.788;12.904;2023-12-20T12:34:19;96906.38;;;5.03;88.54
72038;BME280;59900;50.788;12.904;2023-12-20T12:36:44;96923.34;;;4.99;88.19
72038;BME280;59900;50.788;12.904;2023-12-20T12:39:14;96919.13;;;4.98;88.49
72038;BME280;59900;50.788;12.904;2023-12-20T12:41:42;96890.63;;;4.96;89.01
72038;BME280;59900;50.788;12.904;2023-12-20T12:44:08;96902.88;;;4.96;88.11
72038;BME280;59900;50.788;12.904;2023-12-20T12:46:33;96894.41;;;4.94;88.77
72038;BME280;59900;50.788;12.904;2023-12-20T12:48:58;96882.81;;;4.96;88.59